createdAt,value
2023-01-11T00:00:07.073Z,18.16
2023-01-11T00:05:05.247Z,19.38
2023-01-11T00:10:04.420Z,18.78
2023-01-11T00:15:03.563Z,19.89
2023-01-11T00:20:02.726Z,19.90
2023-01-11T00:25:01.960Z,19.92
2023-01-11T00:30:02.100Z,18.44
2023-01-11T00:35:00.267Z,20.54
2023-01-11T00:39:59.414Z,19.96
2023-01-11T00:44:59.560Z,22.26
2023-01-11T00:49:59.909Z,20.78
2023-01-11T00:54:57.085Z,23.38
2023-01-11T00:59:56.273Z,23.10
2023-01-11T01:04:56.451Z,23.12
2023-01-11T01:09:56.606Z,24.13
2023-01-11T01:14:53.774Z,21.85
2023-01-11T01:19:52.956Z,22.85
2023-01-11T01:24:55.235Z,23.76
2023-01-11T01:29:52.351Z,24.87
2023-01-11T01:34:50.697Z,26.37
2023-01-11T01:39:52.102Z,23.99
2023-01-11T01:44:49.051Z,27.28
2023-01-11T01:49:50.209Z,25.60
2023-01-11T01:54:47.401Z,25.81
2023-01-11T01:59:46.519Z,26.92
2023-01-11T02:04:47.881Z,26.22
2023-01-11T02:09:45.026Z,27.42
2023-01-11T02:14:44.197Z,24.03
2023-01-11T02:19:43.305Z,27.35
2023-01-11T02:24:42.646Z,26.66
2023-01-11T02:29:41.814Z,26.56
2023-01-11T02:34:40.966Z,25.56
2023-01-11T02:39:40.101Z,26.47
2023-01-11T02:44:39.280Z,27.37
2023-01-11T02:49:40.416Z,26.68
2023-01-11T02:54:37.578Z,27.99
2023-01-11T02:59:37.707Z,27.19
2023-01-11T03:04:35.866Z,27.79
2023-01-11T03:09:36.029Z,28.69
2023-01-11T03:14:35.296Z,28.89
2023-01-11T03:19:34.574Z,28.99
2023-01-11T03:24:33.795Z,29.29
2023-01-11T03:29:31.932Z,28.89
2023-01-11T03:34:31.084Z,28.29
2023-01-11T03:39:31.246Z,27.80
2023-01-11T03:44:28.483Z,27.20
2023-01-11T03:49:28.648Z,27.80
2023-01-11T03:54:27.779Z,28.52
2023-01-11T03:59:27.104Z,27.51
2023-01-11T21:10:26.018Z,20.25
2023-01-11T21:15:27.287Z,21.48
2023-01-11T21:20:25.563Z,21.37
2023-01-11T21:25:24.851Z,21.79
2023-01-11T21:30:25.148Z,22.09
2023-01-11T21:35:22.431Z,20.85
2023-01-11T21:40:21.710Z,20.34
2023-01-11T21:45:22.075Z,20.75
2023-01-11T21:50:20.220Z,21.78
2023-01-11T21:55:19.340Z,20.76
2023-01-11T22:00:19.637Z,20.76
2023-01-11T22:05:17.968Z,20.25
2023-01-11T22:10:16.291Z,20.57
2023-01-11T22:15:16.491Z,20.47
2023-01-11T22:20:15.604Z,21.79
2023-01-11T22:25:14.890Z,22.63
2023-01-11T22:30:15.162Z,22.11
2023-01-11T22:35:12.433Z,20.57
2023-01-11T22:40:12.698Z,20.37
2023-01-11T22:45:12.985Z,21.39
2023-01-11T22:50:11.284Z,22.01
2023-01-11T22:55:11.576Z,21.70
2023-01-11T23:00:08.858Z,21.19
2023-01-11T23:05:10.153Z,20.67
2023-01-11T23:10:08.440Z,20.99
2023-01-11T23:15:08.723Z,20.78
2023-01-11T23:20:07.988Z,19.45
2023-01-11T23:25:07.299Z,19.45
2023-01-11T23:30:04.588Z,20.28
2023-01-11T23:35:04.868Z,21.21
2023-01-11T23:40:04.140Z,20.60
2023-01-11T23:45:04.387Z,19.75
2023-01-11T23:50:02.676Z,19.31
2023-01-11T23:55:01.937Z,19.26
